createdAt,value
2022-10-13T00:01:23.794Z,22.60
2022-10-13T00:03:52.900Z,19.65
2022-10-13T00:06:23.470Z,19.45
2022-10-13T00:08:52.332Z,19.38
2022-10-13T00:11:22.990Z,20.75
2022-10-13T00:13:52.134Z,18.50
2022-10-13T00:16:23.195Z,18.20
2022-10-13T00:18:51.607Z,22.30
2022-10-13T00:21:22.204Z,19.58
2022-10-13T00:23:51.212Z,18.20
2022-10-13T00:26:21.509Z,18.67
2022-10-13T00:28:52.761Z,19.30
2022-10-13T00:31:24.189Z,17.52
2022-10-13T00:33:53.307Z,17.58
2022-10-13T00:36:22.974Z,19.05
2022-10-13T00:38:51.874Z,18.35
2022-10-13T00:41:20.029Z,17.10
2022-10-13T00:43:57.562Z,16.90
2022-10-13T00:46:29.240Z,18.02
2022-10-13T00:48:59.230Z,17.05
2022-10-13T00:51:32.470Z,16.75
2022-10-13T00:54:01.590Z,16.50
2022-10-13T00:56:30.805Z,15.80
2022-10-13T00:58:59.640Z,14.15
2022-10-13T01:01:29.714Z,13.48
2022-10-13T01:03:58.274Z,13.13
2022-10-13T01:06:26.540Z,23.73
2022-10-13T01:08:55.301Z,11.27
2022-10-13T01:11:43.517Z,11.68
2022-10-13T01:14:19.946Z,11.90
2022-10-13T01:16:55.466Z,11.68
2022-10-13T01:19:59.681Z,10.73
2022-10-13T01:22:48.846Z,9.25
2022-10-13T01:25:35.443Z,8.05
2022-10-13T01:28:27.737Z,7.90
2022-10-13T01:31:04.519Z,7.60
2022-10-13T01:33:38.804Z,23.73
2022-10-13T01:36:22.338Z,30.27
2022-10-13T01:38:56.723Z,19.60
2022-10-13T01:41:29.847Z,7.35
2022-10-13T01:44:07.165Z,7.27
2022-10-13T01:46:39.297Z,6.97
2022-10-13T01:49:11.803Z,7.70
2022-10-13T01:51:42.188Z,8.27
2022-10-13T01:54:10.793Z,8.95
2022-10-13T01:56:38.878Z,8.55
2022-10-13T01:59:11.578Z,9.50
2022-10-13T02:01:55.050Z,11.05
2022-10-13T02:04:32.105Z,7.68
2022-10-13T02:07:04.602Z,8.50
2022-10-13T02:09:38.701Z,9.13
2022-10-13T02:12:11.132Z,12.73
2022-10-13T02:14:42.536Z,14.00
2022-10-13T02:17:12.579Z,12.57
2022-10-13T02:19:41.922Z,11.75
2022-10-13T02:22:16.108Z,11.35
2022-10-13T02:24:44.925Z,9.13
2022-10-13T02:27:13.653Z,7.75
2022-10-13T02:29:51.328Z,8.65
2022-10-13T02:32:21.984Z,8.20
2022-10-13T02:34:52.111Z,8.98
2022-10-13T02:37:20.242Z,8.07
2022-10-13T02:39:48.759Z,8.45
2022-10-13T02:42:16.886Z,9.02
2022-10-13T02:44:45.044Z,7.90
2022-10-13T02:47:13.752Z,7.95
2022-10-13T02:49:43.225Z,9.70
2022-10-13T02:55:01.366Z,15.73
2022-10-13T02:57:29.971Z,20.05
2022-10-13T02:59:58.044Z,17.00
2022-10-13T03:02:27.973Z,17.75
2022-10-13T03:04:57.850Z,18.95
2022-10-13T03:07:26.002Z,19.02
2022-10-13T03:09:54.551Z,12.50
2022-10-13T03:12:23.013Z,11.27
2022-10-13T03:14:51.253Z,12.30
2022-10-13T03:17:19.974Z,15.88
2022-10-13T03:19:48.376Z,18.50
2022-10-13T03:22:18.713Z,14.10
2022-10-13T03:24:47.598Z,10.93
2022-10-13T03:27:16.177Z,10.85
2022-10-13T03:29:44.663Z,11.57
2022-10-13T03:32:13.200Z,11.23
2022-10-13T03:34:41.961Z,10.75
2022-10-13T03:37:10.160Z,10.55
2022-10-13T03:39:40.155Z,11.07
2022-10-13T03:42:08.428Z,10.85
2022-10-13T03:44:37.050Z,11.20
2022-10-13T03:47:05.167Z,11.23
2022-10-13T03:49:33.707Z,12.75
2022-10-13T03:52:01.847Z,15.02
2022-10-13T03:54:29.988Z,16.25
2022-10-13T03:56:59.537Z,17.25
2022-10-13T03:59:31.810Z,17.45
2022-10-13T04:02:04.001Z,17.33
2022-10-13T04:04:32.618Z,17.67
2022-10-13T04:07:00.736Z,17.38
2022-10-13T04:09:29.206Z,19.25
2022-10-13T04:11:57.740Z,17.30
2022-10-13T04:14:27.546Z,16.27
2022-10-13T04:16:56.101Z,16.95
2022-10-13T04:19:24.769Z,16.48
2022-10-13T04:21:52.921Z,15.43
2022-10-13T04:24:21.445Z,14.88
2022-10-13T04:26:49.998Z,15.60
2022-10-13T04:29:18.639Z,15.73
2022-10-13T04:31:48.175Z,14.88
2022-10-13T04:34:16.724Z,15.73
2022-10-13T04:36:45.668Z,15.57
2022-10-13T04:39:13.778Z,15.85
2022-10-13T04:41:41.907Z,15.23
2022-10-13T04:44:10.513Z,14.25
2022-10-13T04:46:38.614Z,14.23
2022-10-13T04:49:08.527Z,14.50
2022-10-13T04:51:36.694Z,14.48
2022-10-13T04:54:06.083Z,14.63
2022-10-13T04:56:34.535Z,14.20
2022-10-13T04:59:03.096Z,15.35
2022-10-13T05:01:31.275Z,14.63
2022-10-13T05:04:01.679Z,15.05
2022-10-13T05:06:33.598Z,17.00
2022-10-13T05:09:01.982Z,17.17
2022-10-13T05:11:31.432Z,16.15
2022-10-13T05:14:00.305Z,16.38
2022-10-13T05:16:29.778Z,16.75
2022-10-13T05:18:57.945Z,15.25
2022-10-13T05:21:28.945Z,15.48
2022-10-13T05:24:00.045Z,15.15
2022-10-13T05:26:32.465Z,15.52
2022-10-13T05:29:01.797Z,15.35
2022-10-13T05:31:31.403Z,15.02
2022-10-13T05:34:00.136Z,16.27
2022-10-13T05:36:31.291Z,16.60
2022-10-13T05:39:03.682Z,15.18
2022-10-13T05:41:32.931Z,14.45
2022-10-13T05:44:03.218Z,13.15
2022-10-13T05:46:31.818Z,13.18
2022-10-13T05:49:00.207Z,13.25
2022-10-13T05:51:32.475Z,13.57
2022-10-13T05:54:05.729Z,12.68
2022-10-13T05:56:38.579Z,13.50
2022-10-13T05:59:09.970Z,14.60
2022-10-13T06:01:41.053Z,13.82
2022-10-13T06:04:13.686Z,39.42
2022-10-13T06:06:41.937Z,15.02
2022-10-13T06:09:11.874Z,15.02
2022-10-13T06:11:40.074Z,16.48
2022-10-13T06:14:08.180Z,14.02
2022-10-13T06:16:36.904Z,18.23
2022-10-13T06:19:05.835Z,13.65
2022-10-13T06:21:35.870Z,22.42
2022-10-13T06:24:04.158Z,14.98
2022-10-13T06:26:33.738Z,16.30
2022-10-13T06:29:01.975Z,14.95
2022-10-13T06:31:30.168Z,14.18
2022-10-13T06:33:59.645Z,16.63
2022-10-13T06:36:28.239Z,14.63
2022-10-13T06:38:56.366Z,15.85
2022-10-13T06:41:24.507Z,17.92
2022-10-13T06:43:54.024Z,15.43
2022-10-13T06:46:22.592Z,14.13
2022-10-13T06:48:51.985Z,14.65
2022-10-13T06:51:20.458Z,13.77
2022-10-13T06:53:48.674Z,15.15
2022-10-13T06:56:17.478Z,16.92
2022-10-13T06:58:45.869Z,15.48
2022-10-13T07:01:15.890Z,14.80
2022-10-13T07:03:44.239Z,14.73
2022-10-13T07:06:12.732Z,14.30
2022-10-13T07:08:40.836Z,14.50
2022-10-13T07:11:15.297Z,12.80
2022-10-13T07:13:46.608Z,13.63
2022-10-13T07:16:17.598Z,12.93
2022-10-13T07:18:47.884Z,14.05
2022-10-13T07:21:16.801Z,12.82
2022-10-13T07:23:45.031Z,11.40
2022-10-13T07:26:15.899Z,13.82
2022-10-13T07:28:45.343Z,14.27
2022-10-13T07:31:15.453Z,13.85
2022-10-13T07:33:47.400Z,12.90
2022-10-13T07:36:15.836Z,12.82
2022-10-13T07:38:44.387Z,13.32
2022-10-13T07:41:14.203Z,13.15
2022-10-13T07:43:42.547Z,13.73
2022-10-13T07:46:13.417Z,14.00
2022-10-13T07:48:41.828Z,12.70
2022-10-13T07:51:14.200Z,13.85
2022-10-13T07:53:43.813Z,13.25
2022-10-13T07:56:13.380Z,13.95
2022-10-13T07:58:44.571Z,16.52
2022-10-13T08:01:13.866Z,14.52
2022-10-13T08:03:47.143Z,14.00
2022-10-13T08:06:20.214Z,14.13
2022-10-13T08:08:48.596Z,14.63
2022-10-13T08:11:17.984Z,13.00
2022-10-13T08:13:49.722Z,13.65
2022-10-13T08:16:18.786Z,13.65
2022-10-13T08:18:47.048Z,12.60
2022-10-13T08:21:57.140Z,13.50
2022-10-13T08:24:09.580Z,13.45
2022-10-13T08:26:38.865Z,13.27
2022-10-13T08:29:24.270Z,13.10
2022-10-13T08:31:53.665Z,13.63
2022-10-13T08:34:22.996Z,14.00
2022-10-13T08:36:53.751Z,12.82
2022-10-13T08:39:24.536Z,14.68
2022-10-13T08:41:53.659Z,13.80
2022-10-13T08:45:06.236Z,12.68
2022-10-13T08:47:22.164Z,14.85
2022-10-13T08:49:50.749Z,15.45
2022-10-13T08:52:22.530Z,13.60
2022-10-13T08:54:53.004Z,14.45
2022-10-13T08:57:21.883Z,13.40
2022-10-13T08:59:51.542Z,14.90
2022-10-13T09:02:26.756Z,14.07
2022-10-13T09:04:55.622Z,13.50
2022-10-13T09:07:27.656Z,15.15
2022-10-13T09:09:57.719Z,13.82
2022-10-13T09:12:27.073Z,14.75
2022-10-13T09:15:01.844Z,14.63
2022-10-13T09:17:31.844Z,13.38
2022-10-13T09:20:02.507Z,14.70
2022-10-13T09:22:33.168Z,13.55
2022-10-13T09:25:20.555Z,14.93
2022-10-13T09:27:52.193Z,13.23
2022-10-13T09:30:31.048Z,15.13
2022-10-13T09:33:24.861Z,14.80
2022-10-13T09:36:12.657Z,13.73
2022-10-13T09:38:43.145Z,15.80
2022-10-13T09:41:20.810Z,14.45
2022-10-13T09:44:03.036Z,15.40
2022-10-13T09:46:35.270Z,14.55
2022-10-13T09:49:07.139Z,15.23
2022-10-13T09:51:39.255Z,15.07
2022-10-13T09:54:25.836Z,16.92
2022-10-13T09:57:00.076Z,15.18
2022-10-13T09:59:34.716Z,16.95
2022-10-13T10:02:05.296Z,15.98
2022-10-13T10:04:39.072Z,17.75
2022-10-13T10:07:13.441Z,17.25
2022-10-13T10:09:46.485Z,17.02
2022-10-13T10:12:25.457Z,15.85
2022-10-13T10:14:56.361Z,15.30
2022-10-13T10:17:31.813Z,15.10
2022-10-13T10:20:15.181Z,16.45
2022-10-13T10:22:51.094Z,13.77
2022-10-13T10:25:28.058Z,15.48
2022-10-13T10:28:24.962Z,15.27
2022-10-13T10:31:00.683Z,14.15
2022-10-13T10:33:47.059Z,14.23
2022-10-13T10:36:19.001Z,13.75
2022-10-13T10:38:53.107Z,14.10
2022-10-13T10:41:35.980Z,16.90
2022-10-13T10:44:09.544Z,15.35
2022-10-13T10:46:41.685Z,15.68
2022-10-13T10:49:18.276Z,14.48
2022-10-13T10:51:46.963Z,13.95
2022-10-13T10:54:32.579Z,16.67
2022-10-13T10:57:07.334Z,14.77
2022-10-13T10:59:50.843Z,15.23
2022-10-13T11:02:36.770Z,15.77
2022-10-13T11:05:06.673Z,17.83
2022-10-13T11:07:58.428Z,15.10
2022-10-13T11:10:27.298Z,14.75
2022-10-13T11:13:21.419Z,16.40
2022-10-13T11:15:51.212Z,13.77
2022-10-13T11:19:06.202Z,14.10
2022-10-13T11:22:19.683Z,14.60
2022-10-13T11:25:03.473Z,13.65
2022-10-13T11:27:45.296Z,17.58
2022-10-13T11:30:43.650Z,16.77
2022-10-13T11:33:35.733Z,13.55
2022-10-13T11:36:41.584Z,14.10
2022-10-13T11:39:43.328Z,12.80
2022-10-13T11:42:37.858Z,14.10
2022-10-13T11:45:22.211Z,13.43
2022-10-13T11:48:22.915Z,14.25
2022-10-13T11:51:01.373Z,12.45
2022-10-13T11:53:35.397Z,15.18
2022-10-13T11:56:03.907Z,13.40
2022-10-13T11:58:34.070Z,14.20
2022-10-13T12:01:06.821Z,14.20
2022-10-13T12:03:36.831Z,13.45
2022-10-13T12:06:08.679Z,14.93
2022-10-13T12:08:38.927Z,12.60
2022-10-13T12:11:10.503Z,15.25
2022-10-13T12:13:38.668Z,16.63
2022-10-13T12:16:09.291Z,15.43
2022-10-13T12:18:39.614Z,13.60
2022-10-13T12:21:14.251Z,14.75
2022-10-13T12:23:42.753Z,13.38
2022-10-13T12:26:17.208Z,13.93
2022-10-13T12:28:50.556Z,14.40
2022-10-13T12:31:21.654Z,12.40
2022-10-13T12:33:57.663Z,12.05
2022-10-13T12:36:31.613Z,13.23
2022-10-13T12:39:02.944Z,13.45
2022-10-13T12:41:33.660Z,16.77
2022-10-13T12:44:05.763Z,11.45
2022-10-13T12:46:42.535Z,11.18
2022-10-13T12:49:16.266Z,10.43
2022-10-13T12:51:49.171Z,13.38
2022-10-13T12:54:25.129Z,11.45
2022-10-13T12:56:56.567Z,11.70
2022-10-13T12:59:26.937Z,12.77
2022-10-13T13:02:01.283Z,11.82
2022-10-13T13:04:32.635Z,13.73
2022-10-13T13:07:03.903Z,11.85
2022-10-13T13:09:34.205Z,12.57
2022-10-13T13:12:24.438Z,12.18
2022-10-13T13:14:55.162Z,13.20
2022-10-13T13:20:26.778Z,11.20
2022-10-13T13:22:56.869Z,10.98
2022-10-13T13:25:25.492Z,10.88
2022-10-13T13:27:54.513Z,12.80
2022-10-13T13:30:24.660Z,12.90
2022-10-13T13:32:52.749Z,10.95
2022-10-13T13:35:21.280Z,10.77
2022-10-13T13:37:51.293Z,10.32
2022-10-13T13:40:23.096Z,11.07
2022-10-13T13:42:51.337Z,10.85
2022-10-13T13:45:22.705Z,11.63
2022-10-13T13:47:51.417Z,11.10
2022-10-13T13:50:23.700Z,11.27
2022-10-13T13:52:51.867Z,10.25
2022-10-13T13:55:22.923Z,13.00
2022-10-13T13:57:51.127Z,10.75
2022-10-13T14:00:21.881Z,12.32
2022-10-13T14:02:50.314Z,11.65
2022-10-13T14:05:18.988Z,12.75
2022-10-13T14:07:47.609Z,10.60
2022-10-13T14:10:15.845Z,11.32
2022-10-13T14:12:45.929Z,10.88
2022-10-13T14:15:14.080Z,10.82
2022-10-13T14:17:42.232Z,11.85
2022-10-13T14:20:11.541Z,11.48
2022-10-13T14:22:40.280Z,11.63
2022-10-13T14:25:09.366Z,12.10
2022-10-13T14:27:37.850Z,12.90
2022-10-13T14:30:09.971Z,12.18
2022-10-13T14:32:38.524Z,12.88
2022-10-13T14:35:07.827Z,10.23
2022-10-13T14:37:36.244Z,13.23
2022-10-13T14:40:05.295Z,12.90
2022-10-13T14:42:33.400Z,12.80
2022-10-13T14:45:04.457Z,16.10
2022-10-13T14:47:33.970Z,13.60
2022-10-13T14:50:03.023Z,14.45
2022-10-13T14:52:31.176Z,12.40
2022-10-13T14:54:59.295Z,12.73
2022-10-13T14:57:28.095Z,10.32
2022-10-13T15:00:00.890Z,10.88
2022-10-13T15:02:31.500Z,10.23
2022-10-13T15:05:01.127Z,11.75
2022-10-13T15:07:29.240Z,13.43
2022-10-13T15:10:06.535Z,10.23
2022-10-13T15:12:35.186Z,12.10
2022-10-13T15:15:04.140Z,10.23
2022-10-13T15:17:33.272Z,11.52
2022-10-13T15:20:03.836Z,10.18
2022-10-13T15:22:31.955Z,10.77
2022-10-13T15:25:00.572Z,9.77
2022-10-13T15:27:29.113Z,10.00
2022-10-13T15:29:57.226Z,9.43
2022-10-13T15:32:25.580Z,10.70
2022-10-13T15:34:54.843Z,8.38
2022-10-13T15:37:24.743Z,9.00
2022-10-13T15:39:57.033Z,9.55
2022-10-13T15:42:26.094Z,8.20
2022-10-13T15:45:11.067Z,7.88
2022-10-13T15:47:40.406Z,7.00
2022-10-13T15:50:10.069Z,13.02
2022-10-13T15:52:41.783Z,10.65
2022-10-13T15:55:11.146Z,8.82
2022-10-13T15:57:40.381Z,8.95
2022-10-13T16:00:13.887Z,10.40
2022-10-13T16:02:42.854Z,9.05
2022-10-13T16:05:13.611Z,9.23
2022-10-13T16:07:43.735Z,9.73
2022-10-13T16:10:14.200Z,10.75
2022-10-13T16:12:46.976Z,8.07
2022-10-13T16:15:18.448Z,11.63
2022-10-13T16:17:46.662Z,6.90
2022-10-13T16:20:14.788Z,8.68
2022-10-13T16:22:44.412Z,8.27
2022-10-13T16:25:12.705Z,12.68
2022-10-13T16:27:44.272Z,8.35
2022-10-13T16:30:13.938Z,12.15
2022-10-13T16:32:42.581Z,8.93
2022-10-13T16:35:11.783Z,12.98
2022-10-13T16:37:40.031Z,9.98
2022-10-13T16:40:10.918Z,10.40
2022-10-13T16:42:39.107Z,9.85
2022-10-13T16:45:08.455Z,10.27
2022-10-13T16:47:36.979Z,16.90
2022-10-13T16:50:09.333Z,9.70
2022-10-13T16:52:38.471Z,11.43
2022-10-13T16:55:07.829Z,10.77
2022-10-13T16:57:37.785Z,10.48
2022-10-13T17:00:07.045Z,9.50
2022-10-13T17:02:36.871Z,14.73
2022-10-13T17:05:05.358Z,11.25
2022-10-13T17:07:33.893Z,11.18
2022-10-13T17:10:03.577Z,13.85
2022-10-13T17:12:31.676Z,13.40
2022-10-13T17:15:01.169Z,14.45
2022-10-13T17:17:29.834Z,13.07
2022-10-13T17:19:57.894Z,14.52
2022-10-13T17:22:26.417Z,14.15
2022-10-13T17:24:55.436Z,13.15
2022-10-13T17:27:23.994Z,11.52
2022-10-13T17:29:53.933Z,11.85
2022-10-13T17:32:23.794Z,10.82
2022-10-13T17:34:52.441Z,10.45
2022-10-13T17:37:20.851Z,10.65
2022-10-13T17:39:49.333Z,10.10
2022-10-13T17:42:17.895Z,11.15
2022-10-13T17:44:45.980Z,16.67
2022-10-13T17:47:14.547Z,17.88
2022-10-13T17:49:44.122Z,17.08
2022-10-13T17:52:12.268Z,14.55
2022-10-13T17:54:40.348Z,15.07
2022-10-13T17:57:10.390Z,15.02
2022-10-13T17:59:38.530Z,16.65
2022-10-13T18:02:06.759Z,12.60
2022-10-13T18:04:35.047Z,12.85
2022-10-13T18:07:04.604Z,13.38
2022-10-13T18:09:32.753Z,20.95
2022-10-13T18:12:00.900Z,16.80
2022-10-13T18:14:29.348Z,22.40
2022-10-13T18:16:57.502Z,21.98
2022-10-13T18:19:25.700Z,23.58
2022-10-13T18:21:53.911Z,20.85
2022-10-13T18:24:25.172Z,17.50
2022-10-13T18:26:53.300Z,20.10
2022-10-13T18:29:21.901Z,25.00
2022-10-13T18:31:50.795Z,19.08
2022-10-13T18:34:19.476Z,15.63
2022-10-13T18:36:49.588Z,16.88
2022-10-13T18:39:19.980Z,16.20
2022-10-13T18:41:50.443Z,16.55
2022-10-13T18:44:19.046Z,16.33
2022-10-13T18:46:50.207Z,15.85
2022-10-13T18:49:20.623Z,15.98
2022-10-13T18:51:52.375Z,13.48
2022-10-13T18:54:20.584Z,12.77
2022-10-13T18:56:50.228Z,12.23
2022-10-13T18:59:19.851Z,12.52
2022-10-13T19:01:48.192Z,14.30
2022-10-13T19:04:17.576Z,12.82
2022-10-13T19:06:46.889Z,11.05
2022-10-13T19:09:17.395Z,12.45
2022-10-13T19:11:46.131Z,14.93
2022-10-13T19:14:15.617Z,14.00
2022-10-13T19:16:45.327Z,14.07
2022-10-13T19:19:13.927Z,11.65
2022-10-13T19:21:42.875Z,13.13
2022-10-13T19:24:11.894Z,13.10
2022-10-13T19:26:40.380Z,10.70
2022-10-13T19:29:10.989Z,12.30
2022-10-13T19:31:42.373Z,11.63
2022-10-13T19:34:12.670Z,12.95
2022-10-13T19:36:43.307Z,12.82
2022-10-13T19:39:16.719Z,11.45
2022-10-13T19:41:46.165Z,13.05
2022-10-13T19:44:15.843Z,11.95
2022-10-13T19:46:46.686Z,12.27
2022-10-13T19:49:16.942Z,11.45
2022-10-13T19:51:45.437Z,15.73
2022-10-13T19:54:15.057Z,13.00
2022-10-13T19:56:43.585Z,12.60
2022-10-13T19:59:12.214Z,15.30
2022-10-13T20:01:41.216Z,13.55
2022-10-13T20:04:11.756Z,12.93
2022-10-13T20:06:39.903Z,11.77
2022-10-13T20:09:08.571Z,13.18
2022-10-13T20:11:37.216Z,14.18
2022-10-13T20:14:05.523Z,11.70
2022-10-13T20:16:34.204Z,13.95
2022-10-13T20:19:02.407Z,12.55
2022-10-13T20:21:31.943Z,12.30
2022-10-13T20:24:00.759Z,11.90
2022-10-13T20:26:29.179Z,10.95
2022-10-13T20:28:58.244Z,11.00
2022-10-13T20:31:27.031Z,10.80
2022-10-13T20:33:56.526Z,15.35
2022-10-13T20:36:26.936Z,12.65
2022-10-13T20:38:56.649Z,11.48
2022-10-13T20:41:27.611Z,12.02
2022-10-13T20:43:58.200Z,11.57
2022-10-13T20:46:27.517Z,11.35
2022-10-13T20:49:12.952Z,14.30
2022-10-13T20:51:45.385Z,14.02
2022-10-13T20:54:16.510Z,14.65
2022-10-13T20:56:45.343Z,12.98
2022-10-13T20:59:15.560Z,15.23
2022-10-13T21:01:44.302Z,14.82
2022-10-13T21:04:12.463Z,10.50
2022-10-13T21:06:41.172Z,10.90
2022-10-13T21:09:09.980Z,10.57
2022-10-13T21:11:39.981Z,10.55
2022-10-13T21:14:10.879Z,12.60
2022-10-13T21:16:39.820Z,11.90
2022-10-13T21:19:08.292Z,13.07
2022-10-13T21:21:37.539Z,15.50
2022-10-13T21:24:07.478Z,13.05
2022-10-13T21:26:36.176Z,11.80
2022-10-13T21:29:06.356Z,11.57
2022-10-13T21:31:34.452Z,10.45
2022-10-13T21:34:03.609Z,17.75
2022-10-13T21:36:34.251Z,10.07
2022-10-13T21:39:04.747Z,11.63
2022-10-13T21:41:33.383Z,12.27
2022-10-13T21:44:01.455Z,11.98
2022-10-13T21:46:32.766Z,11.15
2022-10-13T21:49:03.663Z,11.15
2022-10-13T21:51:33.572Z,10.30
2022-10-13T21:54:03.464Z,10.75
2022-10-13T21:56:32.632Z,11.65
2022-10-13T21:59:01.954Z,9.20
2022-10-13T22:01:31.691Z,9.65
2022-10-13T22:04:02.105Z,11.00
2022-10-13T22:06:31.994Z,10.15
2022-10-13T22:09:02.475Z,12.30
2022-10-13T22:11:33.571Z,9.90
2022-10-13T22:14:02.281Z,10.88
2022-10-13T22:16:35.454Z,10.55
2022-10-13T22:19:04.254Z,10.65
2022-10-13T22:21:34.661Z,9.57
2022-10-13T22:24:05.171Z,14.23
2022-10-13T22:26:36.148Z,13.27
2022-10-13T22:29:07.078Z,9.30
2022-10-13T22:31:36.954Z,11.90
2022-10-13T22:34:05.255Z,9.52
2022-10-13T22:36:33.357Z,9.77
2022-10-13T22:39:03.829Z,8.77
2022-10-13T22:41:33.701Z,9.90
2022-10-13T22:44:03.236Z,8.88
2022-10-13T22:46:34.058Z,11.77
2022-10-13T22:49:03.834Z,9.13
2022-10-13T22:51:34.302Z,9.90
2022-10-13T22:54:03.193Z,10.55
2022-10-13T22:56:34.133Z,8.48
2022-10-13T22:59:04.537Z,9.65
2022-10-13T23:01:33.389Z,10.05
2022-10-13T23:04:03.343Z,9.25
2022-10-13T23:06:33.184Z,12.23
2022-10-13T23:09:02.431Z,9.38
2022-10-13T23:11:31.137Z,8.98
2022-10-13T23:13:59.245Z,9.40
2022-10-13T23:16:28.840Z,9.45
2022-10-13T23:18:57.024Z,11.05
2022-10-13T23:21:29.505Z,8.73
2022-10-13T23:23:58.449Z,9.50
2022-10-13T23:26:27.756Z,11.02
2022-10-13T23:28:57.479Z,8.93
2022-10-13T23:31:26.319Z,9.75
2022-10-13T23:33:54.658Z,10.88
2022-10-13T23:36:28.585Z,11.95
2022-10-13T23:38:57.454Z,11.27
2022-10-13T23:41:26.113Z,9.73
2022-10-13T23:43:54.284Z,10.45
2022-10-13T23:46:23.322Z,10.93
2022-10-13T23:48:51.677Z,10.52
2022-10-13T23:51:22.049Z,14.65
2022-10-13T23:53:52.902Z,10.23
2022-10-13T23:56:21.076Z,9.15
2022-10-13T23:58:50.374Z,10.18
